sensor_id;sensor_type;location;lat;lon;timestamp;pressure;altitude;pressure_sealevel;temperature;humidity
60874;BME280;46715;40.642;-7.920;2023-06-10T00:00:06;96043.66;;;15.49;100.00
60874;BME280;46715;40.642;-7.920;2023-06-10T00:02:13;96038.84;;;15.51;100.00
60874;BME280;46715;40.642;-7.920;2023-06-10T00:04:14;96035.47;;;15.51;100.00
60874;BME280;46715;40.642;-7.920;2023-06-10T00:06:17;96036.72;;;15.54;100.00
60874;BME280;46715;40.642;-7.920;2023-06-10T00:08:18;96037.47;;;15.54;100.00
60874;BME280;46715;40.642;-7.920;2023-06-10T00:10:20;96031.91;;;15.56;100.00
60874;BME280;46715;40.642;-7.920;2023-06-10T00:12:20;96032.97;;;15.55;100.00
60874;BME280;46715;40.642;-7.920;2023-06-10T00:14:21;96033.47;;;15.57;100.00
60874;BME280;46715;40.642;-7.920;2023-06-10T00:16:23;96026.34;;;15.57;100.00
60874;BME280;46715;40.642;-7.920;2023-06-10T00:18:24;96026.66;;;15.56;100.00
60874;BME280;46715;40.642;-7.920;2023-06-10T00:20:27;96018.78;;;15.56;100.00
60874;BME280;46715;40.642;-7.920;2023-06-10T00:22:28;96032.41;;;15.58;100.00
60874;BME280;46715;40.642;-7.920;2023-06-10T00:24:30;96033.47;;;15.57;100.00
60874;BME280;46715;40.642;-7.920;2023-06-10T00:26:31;96030.34;;;15.55;100.00
60874;BME280;46715;40.642;-7.920;2023-06-10T00:28:32;96023.41;;;15.59;100.00
60874;BME280;46715;40.642;-7.920;2023-06-10T00:30:33;96027.91;;;15.58;100.00
60874;BME280;46715;40.642;-7.920;2023-06-10T00:32:35;96038.41;;;15.58;100.00
60874;BME280;46715;40.642;-7.920;2023-06-10T00:34:36;96029.47;;;15.59;100.00
60874;BME280;46715;40.642;-7.920;2023-06-10T00:36:37;96032.41;;;15.58;100.00
60874;BME280;46715;40.642;-7.920;2023-06-10T00:38:37;96032.09;;;15.59;100.00
60874;BME280;46715;40.642;-7.920;2023-06-10T00:40:39;96032.53;;;15.61;100.00
60874;BME280;46715;40.642;-7.920;2023-06-10T00:42:41;96030.22;;;15.60;100.00
60874;BME280;46715;40.642;-7.920;2023-06-10T00:44:41;96026.34;;;15.57;100.00
60874;BME280;46715;40.642;-7.920;2023-06-10T00:46:44;96029.59;;;15.54;100.00
60874;BME280;46715;40.642;-7.920;2023-06-10T00:48:45;96029.13;;;15.52;100.00
60874;BME280;46715;40.642;-7.920;2023-06-10T00:50:46;96040.72;;;15.51;100.00
60874;BME280;46715;40.642;-7.920;2023-06-10T00:52:47;96028.34;;;15.51;100.00
60874;BME280;46715;40.642;-7.920;2023-06-10T00:54:52;96029.91;;;15.52;100.00
60874;BME280;46715;40.642;-7.920;2023-06-10T00:56:53;96030.81;;;15.48;100.00
60874;BME280;46715;40.642;-7.920;2023-06-10T00:58:54;96025.38;;;15.44;100.00
60874;BME280;46715;40.642;-7.920;2023-06-10T01:00:55;96022.00;;;15.44;100.00
60874;BME280;46715;40.642;-7.920;2023-06-10T01:02:56;96024.13;;;15.42;100.00
60874;BME280;46715;40.642;-7.920;2023-06-10T01:04:57;96022.41;;;15.37;100.00
60874;BME280;46715;40.642;-7.920;2023-06-10T01:07:21;96021.94;;;15.35;100.00
60874;BME280;46715;40.642;-7.920;2023-06-10T01:09:45;96019.16;;;15.31;100.00
60874;BME280;46715;40.642;-7.920;2023-06-10T01:11:59;96011.72;;;15.25;100.00
60874;BME280;46715;40.642;-7.920;2023-06-10T01:14:04;96018.53;;;15.26;100.00
60874;BME280;46715;40.642;-7.920;2023-06-10T01:16:05;96016.53;;;15.31;100.00
60874;BME280;46715;40.642;-7.920;2023-06-10T01:18:08;96017.00;;;15.33;100.00
60874;BME280;46715;40.642;-7.920;2023-06-10T01:20:10;96013.09;;;15.31;100.00
60874;BME280;46715;40.642;-7.920;2023-06-10T01:22:12;96010.22;;;15.32;100.00
60874;BME280;46715;40.642;-7.920;2023-06-10T01:24:16;96004.78;;;15.29;100.00
60874;BME280;46715;40.642;-7.920;2023-06-10T01:26:21;96011.22;;;15.23;100.00
60874;BME280;46715;40.642;-7.920;2023-06-10T01:31:16;96005.19;;;15.13;100.00
60874;BME280;46715;40.642;-7.920;2023-06-10T01:33:25;96007.91;;;15.08;100.00
60874;BME280;46715;40.642;-7.920;2023-06-10T01:35:30;96007.75;;;15.05;100.00
60874;BME280;46715;40.642;-7.920;2023-06-10T01:37:31;96010.97;;;15.02;100.00
60874;BME280;46715;40.642;-7.920;2023-06-10T01:39:33;95999.41;;;15.03;100.00
60874;BME280;46715;40.642;-7.920;2023-06-10T01:41:34;96011.91;;;15.06;100.00
60874;BME280;46715;40.642;-7.920;2023-06-10T01:43:38;96003.59;;;15.04;100.00
60874;BME280;46715;40.642;-7.920;2023-06-10T01:45:39;96009.59;;;15.04;100.00
60874;BME280;46715;40.642;-7.920;2023-06-10T01:47:39;96013.28;;;15.03;100.00
60874;BME280;46715;40.642;-7.920;2023-06-10T01:49:40;96004.47;;;14.99;100.00
60874;BME280;46715;40.642;-7.920;2023-06-10T01:51:41;96008.50;;;14.96;100.00
60874;BME280;46715;40.642;-7.920;2023-06-10T01:53:42;96012.50;;;14.94;100.00
60874;BME280;46715;40.642;-7.920;2023-06-10T01:55:43;96008.63;;;14.91;100.00
60874;BME280;46715;40.642;-7.920;2023-06-10T01:57:44;96002.09;;;14.89;100.00
60874;BME280;46715;40.642;-7.920;2023-06-10T01:59:44;96000.41;;;14.84;100.00
60874;BME280;46715;40.642;-7.920;2023-06-10T02:01:46;96009.34;;;14.83;100.00
60874;BME280;46715;40.642;-7.920;2023-06-10T02:03:47;96011.19;;;14.82;100.00
60874;BME280;46715;40.642;-7.920;2023-06-10T02:05:48;96005.47;;;14.80;100.00
60874;BME280;46715;40.642;-7.920;2023-06-10T02:07:50;96008.09;;;14.80;100.00
60874;BME280;46715;40.642;-7.920;2023-06-10T02:09:51;96009.34;;;14.83;100.00
60874;BME280;46715;40.642;-7.920;2023-06-10T02:11:52;96008.56;;;14.82;100.00
60874;BME280;46715;40.642;-7.920;2023-06-10T02:13:52;96013.81;;;14.82;100.00
60874;BME280;46715;40.642;-7.920;2023-06-10T02:15:53;96012.25;;;14.81;100.00
60874;BME280;46715;40.642;-7.920;2023-06-10T02:17:54;96010.91;;;14.84;100.00
60874;BME280;46715;40.642;-7.920;2023-06-10T02:19:56;96017.22;;;14.83;100.00
60874;BME280;46715;40.642;-7.920;2023-06-10T02:21:57;96017.22;;;14.83;100.00
60874;BME280;46715;40.642;-7.920;2023-06-10T02:23:57;96016.91;;;14.85;100.00
60874;BME280;46715;40.642;-7.920;2023-06-10T02:25:58;96020.00;;;14.87;100.00
60874;BME280;46715;40.642;-7.920;2023-06-10T02:27:59;96018.16;;;14.87;100.00
60874;BME280;46715;40.642;-7.920;2023-06-10T02:30:00;96024.47;;;14.86;100.00
60874;BME280;46715;40.642;-7.920;2023-06-10T02:32:02;96023.41;;;14.87;100.00
60874;BME280;46715;40.642;-7.920;2023-06-10T02:34:03;96026.03;;;14.87;100.00
60874;BME280;46715;40.642;-7.920;2023-06-10T02:36:06;96028.38;;;14.89;100.00
60874;BME280;46715;40.642;-7.920;2023-06-10T02:38:07;96028.06;;;14.90;100.00
60874;BME280;46715;40.642;-7.920;2023-06-10T02:40:09;96025.91;;;14.92;100.00
60874;BME280;46715;40.642;-7.920;2023-06-10T02:42:14;96026.88;;;14.96;100.00
60874;BME280;46715;40.642;-7.920;2023-06-10T02:44:14;96027.03;;;15.00;100.00
60874;BME280;46715;40.642;-7.920;2023-06-10T02:46:15;96023.03;;;15.03;100.00
60874;BME280;46715;40.642;-7.920;2023-06-10T02:48:17;96025.97;;;15.01;100.00
60874;BME280;46715;40.642;-7.920;2023-06-10T02:50:18;96017.00;;;15.02;100.00
60874;BME280;46715;40.642;-7.920;2023-06-10T02:52:39;96013.59;;;15.02;100.00
60874;BME280;46715;40.642;-7.920;2023-06-10T02:54:40;96014.38;;;15.02;100.00
60874;BME280;46715;40.642;-7.920;2023-06-10T02:56:43;96016.22;;;15.02;100.00
60874;BME280;46715;40.642;-7.920;2023-06-10T02:58:50;96016.22;;;15.02;100.00
60874;BME280;46715;40.642;-7.920;2023-06-10T03:00:53;96014.38;;;15.02;100.00
60874;BME280;46715;40.642;-7.920;2023-06-10T03:02:54;96010.50;;;14.99;100.00
60874;BME280;46715;40.642;-7.920;2023-06-10T03:05:00;96003.69;;;14.98;100.00
60874;BME280;46715;40.642;-7.920;2023-06-10T03:07:01;96002.16;;;14.97;100.00
60874;BME280;46715;40.642;-7.920;2023-06-10T03:09:07;96008.50;;;14.96;100.00
60874;BME280;46715;40.642;-7.920;2023-06-10T03:11:08;96014.03;;;14.95;100.00
60874;BME280;46715;40.642;-7.920;2023-06-10T03:13:10;96016.19;;;14.93;100.00
60874;BME280;46715;40.642;-7.920;2023-06-10T03:15:11;96007.81;;;14.91;100.00
60874;BME280;46715;40.642;-7.920;2023-06-10T03:17:14;96021.44;;;14.93;100.00
60874;BME280;46715;40.642;-7.920;2023-06-10T03:19:17;96028.69;;;14.96;100.00
60874;BME280;46715;40.642;-7.920;2023-06-10T03:21:22;96018.38;;;14.99;100.00
60874;BME280;46715;40.642;-7.920;2023-06-10T03:23:23;96016.22;;;15.02;100.00
60874;BME280;46715;40.642;-7.920;2023-06-10T03:25:24;96013.59;;;15.02;100.00
60874;BME280;46715;40.642;-7.920;2023-06-10T03:27:33;96018.84;;;15.02;100.00
60874;BME280;46715;40.642;-7.920;2023-06-10T03:29:38;96029.66;;;15.00;100.00
60874;BME280;46715;40.642;-7.920;2023-06-10T03:31:41;96023.16;;;14.97;100.00
60874;BME280;46715;40.642;-7.920;2023-06-10T03:33:42;96032.88;;;14.97;100.00
60874;BME280;46715;40.642;-7.920;2023-06-10T03:35:44;96037.06;;;14.98;100.00
60874;BME280;46715;40.642;-7.920;2023-06-10T03:37:46;96033.34;;;14.99;100.00
60874;BME280;46715;40.642;-7.920;2023-06-10T03:39:47;96031.97;;;15.02;100.00
60874;BME280;46715;40.642;-7.920;2023-06-10T03:41:48;96027.53;;;15.02;100.00
60874;BME280;46715;40.642;-7.920;2023-06-10T03:43:49;96026.91;;;15.05;100.00
60874;BME280;46715;40.642;-7.920;2023-06-10T03:45:50;96025.84;;;15.06;100.00
60874;BME280;46715;40.642;-7.920;2023-06-10T03:47:51;96034.47;;;15.07;100.00
60874;BME280;46715;40.642;-7.920;2023-06-10T03:49:56;96034.19;;;15.08;100.00
60874;BME280;46715;40.642;-7.920;2023-06-10T03:51:57;96030.47;;;15.09;100.00
60874;BME280;46715;40.642;-7.920;2023-06-10T03:53:58;96025.53;;;15.08;100.00
60874;BME280;46715;40.642;-7.920;2023-06-10T03:55:59;96023.22;;;15.06;100.00
60874;BME280;46715;40.642;-7.920;2023-06-10T03:58:01;96017.97;;;15.06;100.00
60874;BME280;46715;40.642;-7.920;2023-06-10T04:00:01;96025.34;;;15.04;100.00
60874;BME280;46715;40.642;-7.920;2023-06-10T04:02:15;96018.84;;;15.02;100.00
60874;BME280;46715;40.642;-7.920;2023-06-10T04:04:17;96019.47;;;14.98;100.00
60874;BME280;46715;40.642;-7.920;2023-06-10T04:06:19;96008.19;;;14.98;100.00
60874;BME280;46715;40.642;-7.920;2023-06-10T04:08:23;96012.66;;;14.97;100.00
60874;BME280;46715;40.642;-7.920;2023-06-10T04:10:23;96012.78;;;14.92;100.00
60874;BME280;46715;40.642;-7.920;2023-06-10T04:12:24;96014.28;;;14.85;100.00
60874;BME280;46715;40.642;-7.920;2023-06-10T04:14:25;96020.75;;;14.78;100.00
60874;BME280;46715;40.642;-7.920;2023-06-10T04:16:27;96016.69;;;14.72;100.00
60874;BME280;46715;40.642;-7.920;2023-06-10T04:18:28;96030.41;;;14.69;100.00
60874;BME280;46715;40.642;-7.920;2023-06-10T04:20:32;96026.81;;;14.65;100.00
60874;BME280;46715;40.642;-7.920;2023-06-10T04:22:32;96025.06;;;14.60;100.00
60874;BME280;46715;40.642;-7.920;2023-06-10T04:24:33;96020.09;;;14.59;100.00
60874;BME280;46715;40.642;-7.920;2023-06-10T04:26:37;96022.72;;;14.59;100.00
60874;BME280;46715;40.642;-7.920;2023-06-10T04:28:39;96021.19;;;14.58;100.00
60874;BME280;46715;40.642;-7.920;2023-06-10T04:30:39;96023.63;;;14.54;100.00
60874;BME280;46715;40.642;-7.920;2023-06-10T04:32:42;96026.44;;;14.58;100.00
60874;BME280;46715;40.642;-7.920;2023-06-10T04:34:48;96023.63;;;14.54;100.00
60874;BME280;46715;40.642;-7.920;2023-06-10T04:36:50;96028.09;;;14.54;100.00
60874;BME280;46715;40.642;-7.920;2023-06-10T04:38:52;96027.91;;;14.50;100.00
60874;BME280;46715;40.642;-7.920;2023-06-10T04:40:53;96027.75;;;14.46;100.00
60874;BME280;46715;40.642;-7.920;2023-06-10T04:42:55;96030.66;;;14.45;100.00
60874;BME280;46715;40.642;-7.920;2023-06-10T04:44:56;96037.75;;;14.44;100.00
60874;BME280;46715;40.642;-7.920;2023-06-10T04:46:58;96043.19;;;14.48;100.00
60874;BME280;46715;40.642;-7.920;2023-06-10T04:48:59;96036.84;;;14.49;100.00
60874;BME280;46715;40.642;-7.920;2023-06-10T04:51:00;96042.28;;;14.53;100.00
60874;BME280;46715;40.642;-7.920;2023-06-10T04:53:00;96038.75;;;14.57;100.00
60874;BME280;46715;40.642;-7.920;2023-06-10T04:55:01;96041.81;;;14.64;100.00
60874;BME280;46715;40.642;-7.920;2023-06-10T04:57:02;96039.84;;;14.70;100.00
60874;BME280;46715;40.642;-7.920;2023-06-10T04:59:03;96040.00;;;14.74;100.00
60874;BME280;46715;40.642;-7.920;2023-06-10T05:01:04;96041.25;;;14.76;100.00
60874;BME280;46715;40.642;-7.920;2023-06-10T05:03:04;96048.41;;;14.85;100.00
60874;BME280;46715;40.642;-7.920;2023-06-10T05:05:07;96041.78;;;14.87;100.00
60874;BME280;46715;40.642;-7.920;2023-06-10T05:07:07;96052.28;;;14.87;100.00
60874;BME280;46715;40.642;-7.920;2023-06-10T05:09:09;96047.81;;;14.88;100.00
60874;BME280;46715;40.642;-7.920;2023-06-10T05:11:10;96050.13;;;14.89;100.00
60874;BME280;46715;40.642;-7.920;2023-06-10T05:13:10;96045.66;;;14.90;100.00
60874;BME280;46715;40.642;-7.920;2023-06-10T05:15:11;96045.81;;;14.93;100.00
60874;BME280;46715;40.642;-7.920;2023-06-10T05:17:12;96048.16;;;14.95;100.00
60874;BME280;46715;40.642;-7.920;2023-06-10T05:19:13;96045.25;;;14.96;100.00
60874;BME280;46715;40.642;-7.920;2023-06-10T05:21:14;96043.84;;;14.99;100.00
60874;BME280;46715;40.642;-7.920;2023-06-10T05:23:15;96042.97;;;15.04;100.00
60874;BME280;46715;40.642;-7.920;2023-06-10T05:25:16;96046.06;;;15.06;100.00
60874;BME280;46715;40.642;-7.920;2023-06-10T05:27:17;96044.69;;;15.08;100.00
60874;BME280;46715;40.642;-7.920;2023-06-10T05:29:21;96041.00;;;15.09;100.00
60874;BME280;46715;40.642;-7.920;2023-06-10T05:31:21;96051.19;;;15.11;100.00
60874;BME280;46715;40.642;-7.920;2023-06-10T05:33:22;96041.16;;;15.13;100.00
60874;BME280;46715;40.642;-7.920;2023-06-10T05:35:22;96052.91;;;15.15;100.00
60874;BME280;46715;40.642;-7.920;2023-06-10T05:37:23;96051.84;;;15.16;100.00
60874;BME280;46715;40.642;-7.920;2023-06-10T05:39:24;96052.59;;;15.17;100.00
60874;BME280;46715;40.642;-7.920;2023-06-10T05:41:25;96056.78;;;15.18;100.00
60874;BME280;46715;40.642;-7.920;2023-06-10T05:43:25;96061.72;;;15.20;100.00
60874;BME280;46715;40.642;-7.920;2023-06-10T05:45:27;96055.41;;;15.21;100.00
60874;BME280;46715;40.642;-7.920;2023-06-10T05:47:28;96063.75;;;15.23;100.00
60874;BME280;46715;40.642;-7.920;2023-06-10T05:49:28;96064.25;;;15.25;100.00
60874;BME280;46715;40.642;-7.920;2023-06-10T05:51:29;96070.63;;;15.32;100.00
60874;BME280;46715;40.642;-7.920;2023-06-10T05:53:31;96067.53;;;15.39;100.00
60874;BME280;46715;40.642;-7.920;2023-06-10T05:55:32;96070.06;;;15.44;100.00
60874;BME280;46715;40.642;-7.920;2023-06-10T05:57:33;96071.75;;;15.49;100.00
60874;BME280;46715;40.642;-7.920;2023-06-10T05:59:34;96072.56;;;15.49;100.00
60874;BME280;46715;40.642;-7.920;2023-06-10T06:01:35;96079.06;;;15.52;100.00
60874;BME280;46715;40.642;-7.920;2023-06-10T06:03:35;96074.91;;;15.60;100.00
60874;BME280;46715;40.642;-7.920;2023-06-10T06:05:36;96069.97;;;15.67;100.00
60874;BME280;46715;40.642;-7.920;2023-06-10T06:07:38;96071.22;;;15.69;100.00
60874;BME280;46715;40.642;-7.920;2023-06-10T06:09:39;96070.03;;;15.76;100.00
60874;BME280;46715;40.642;-7.920;2023-06-10T06:11:40;96070.38;;;15.83;100.00
60874;BME280;46715;40.642;-7.920;2023-06-10T06:13:41;96072.75;;;16.02;100.00
60874;BME280;46715;40.642;-7.920;2023-06-10T06:15:42;96078.50;;;16.22;100.00
60874;BME280;46715;40.642;-7.920;2023-06-10T06:17:43;96071.88;;;16.33;100.00
60874;BME280;46715;40.642;-7.920;2023-06-10T06:19:43;96080.38;;;16.47;100.00
60874;BME280;46715;40.642;-7.920;2023-06-10T06:21:45;96080.06;;;16.40;100.00
60874;BME280;46715;40.642;-7.920;2023-06-10T06:23:46;96079.63;;;16.38;100.00
60874;BME280;46715;40.642;-7.920;2023-06-10T06:25:46;96085.03;;;16.33;100.00
60874;BME280;46715;40.642;-7.920;2023-06-10T06:27:47;96075.09;;;16.21;100.00
60874;BME280;46715;40.642;-7.920;2023-06-10T06:29:48;96075.56;;;16.23;100.00
60874;BME280;46715;40.642;-7.920;2023-06-10T06:31:48;96076.66;;;16.22;100.00
60874;BME280;46715;40.642;-7.920;2023-06-10T06:33:49;96073.56;;;16.20;100.00
60874;BME280;46715;40.642;-7.920;2023-06-10T06:35:50;96075.72;;;16.18;100.00
60874;BME280;46715;40.642;-7.920;2023-06-10T06:37:51;96076.66;;;16.22;100.00
60874;BME280;46715;40.642;-7.920;2023-06-10T06:39:59;96078.97;;;16.32;100.00
60874;BME280;46715;40.642;-7.920;2023-06-10T06:42:00;96074.94;;;16.35;100.00
60874;BME280;46715;40.642;-7.920;2023-06-10T06:44:16;96084.88;;;16.38;100.00
60874;BME280;46715;40.642;-7.920;2023-06-10T06:46:18;96088.13;;;16.52;100.00
60874;BME280;46715;40.642;-7.920;2023-06-10T06:48:19;96084.09;;;16.64;100.00
60874;BME280;46715;40.642;-7.920;2023-06-10T06:50:20;96085.03;;;16.59;100.00
60874;BME280;46715;40.642;-7.920;2023-06-10T06:52:20;96090.47;;;16.72;100.00
60874;BME280;46715;40.642;-7.920;2023-06-10T06:54:22;96086.13;;;16.76;100.00
60874;BME280;46715;40.642;-7.920;2023-06-10T06:56:23;96096.03;;;16.87;100.00
60874;BME280;46715;40.642;-7.920;2023-06-10T06:58:24;96088.91;;;16.97;100.00
60874;BME280;46715;40.642;-7.920;2023-06-10T07:00:25;96098.81;;;17.00;100.00
60874;BME280;46715;40.642;-7.920;2023-06-10T07:02:25;96092.94;;;17.12;100.00
60874;BME280;46715;40.642;-7.920;2023-06-10T07:04:26;96102.81;;;17.24;100.00
60874;BME280;46715;40.642;-7.920;2023-06-10T07:06:27;96097.09;;;17.21;100.00
60874;BME280;46715;40.642;-7.920;2023-06-10T07:08:28;96107.03;;;16.98;100.00
60874;BME280;46715;40.642;-7.920;2023-06-10T07:10:29;96111.69;;;17.01;100.00
60874;BME280;46715;40.642;-7.920;2023-06-10T07:12:30;96112.31;;;16.98;100.00
60874;BME280;46715;40.642;-7.920;2023-06-10T07:14:32;96111.38;;;16.94;100.00
60874;BME280;46715;40.642;-7.920;2023-06-10T07:16:33;96116.03;;;16.89;100.00
60874;BME280;46715;40.642;-7.920;2023-06-10T07:18:34;96119.13;;;16.91;100.00
60874;BME280;46715;40.642;-7.920;2023-06-10T07:20:35;96130.44;;;17.00;100.00
60874;BME280;46715;40.642;-7.920;2023-06-10T07:22:35;96134.63;;;17.01;100.00
60874;BME280;46715;40.642;-7.920;2023-06-10T07:24:36;96127.94;;;16.86;100.00
60874;BME280;46715;40.642;-7.920;2023-06-10T07:26:37;96136.28;;;16.79;100.00
60874;BME280;46715;40.642;-7.920;2023-06-10T07:28:37;96142.50;;;16.83;100.00
60874;BME280;46715;40.642;-7.920;2023-06-10T07:30:38;96142.84;;;16.99;100.00
60874;BME280;46715;40.642;-7.920;2023-06-10T07:32:39;96133.06;;;17.00;100.00
60874;BME280;46715;40.642;-7.920;2023-06-10T07:34:40;96142.81;;;17.08;100.00
60874;BME280;46715;40.642;-7.920;2023-06-10T07:36:41;96138.16;;;17.23;100.00
60874;BME280;46715;40.642;-7.920;2023-06-10T07:38:42;96137.19;;;17.45;100.00
60874;BME280;46715;40.642;-7.920;2023-06-10T07:40:43;96145.22;;;17.57;100.00
60874;BME280;46715;40.642;-7.920;2023-06-10T07:42:44;96155.41;;;17.76;100.00
60874;BME280;46715;40.642;-7.920;2023-06-10T07:44:44;96150.31;;;18.10;100.00
60874;BME280;46715;40.642;-7.920;2023-06-10T07:46:45;96140.63;;;18.22;100.00
60874;BME280;46715;40.642;-7.920;2023-06-10T07:48:47;96152.38;;;18.34;100.00
60874;BME280;46715;40.642;-7.920;2023-06-10T07:50:48;96154.00;;;18.47;100.00
60874;BME280;46715;40.642;-7.920;2023-06-10T07:52:48;96148.09;;;18.71;100.00
60874;BME280;46715;40.642;-7.920;2023-06-10T07:54:49;96153.84;;;18.73;100.00
60874;BME280;46715;40.642;-7.920;2023-06-10T07:56:50;96153.97;;;18.56;100.00
60874;BME280;46715;40.642;-7.920;2023-06-10T07:58:53;96154.41;;;18.79;100.00
60874;BME280;46715;40.642;-7.920;2023-06-10T08:00:54;96157.31;;;18.86;100.00
60874;BME280;46715;40.642;-7.920;2023-06-10T08:02:54;96146.22;;;19.48;100.00
60874;BME280;46715;40.642;-7.920;2023-06-10T08:04:56;96153.22;;;19.77;97.44
60874;BME280;46715;40.642;-7.920;2023-06-10T08:06:56;96152.78;;;20.61;94.91
60874;BME280;46715;40.642;-7.920;2023-06-10T08:08:57;96150.47;;;21.29;84.94
60874;BME280;46715;40.642;-7.920;2023-06-10T08:10:58;96149.03;;;22.08;78.84
60874;BME280;46715;40.642;-7.920;2023-06-10T08:13:00;96148.44;;;23.67;74.42
60874;BME280;46715;40.642;-7.920;2023-06-10T08:15:01;96139.78;;;23.74;68.63
60874;BME280;46715;40.642;-7.920;2023-06-10T08:17:02;96145.44;;;24.19;66.73
60874;BME280;46715;40.642;-7.920;2023-06-10T08:19:03;96144.84;;;24.29;64.91
60874;BME280;46715;40.642;-7.920;2023-06-10T08:21:04;96144.25;;;24.16;64.64
60874;BME280;46715;40.642;-7.920;2023-06-10T08:23:05;96144.47;;;24.04;65.37
60874;BME280;46715;40.642;-7.920;2023-06-10T08:25:06;96150.00;;;24.45;64.53
60874;BME280;46715;40.642;-7.920;2023-06-10T08:27:07;96150.50;;;24.28;63.15
60874;BME280;46715;40.642;-7.920;2023-06-10T08:29:07;96155.75;;;24.21;63.38
60874;BME280;46715;40.642;-7.920;2023-06-10T08:31:08;96158.47;;;23.55;66.52
60874;BME280;46715;40.642;-7.920;2023-06-10T08:33:09;96157.06;;;23.61;66.61
60874;BME280;46715;40.642;-7.920;2023-06-10T08:35:09;96157.53;;;23.43;65.47
60874;BME280;46715;40.642;-7.920;2023-06-10T08:37:10;96159.59;;;24.23;64.78
60874;BME280;46715;40.642;-7.920;2023-06-10T08:39:11;96150.19;;;24.29;63.17
60874;BME280;46715;40.642;-7.920;2023-06-10T08:41:14;96155.25;;;24.11;63.85
60874;BME280;46715;40.642;-7.920;2023-06-10T08:43:24;96156.16;;;24.23;62.08
60874;BME280;46715;40.642;-7.920;2023-06-10T08:45:30;96163.44;;;23.56;64.72
60874;BME280;46715;40.642;-7.920;2023-06-10T08:47:37;96169.13;;;23.78;63.84
60874;BME280;46715;40.642;-7.920;2023-06-10T08:49:44;96156.63;;;25.53;59.39
60874;BME280;46715;40.642;-7.920;2023-06-10T08:51:50;96152.94;;;26.10;54.96
60874;BME280;46715;40.642;-7.920;2023-06-10T08:54:02;96156.31;;;27.90;51.13
60874;BME280;46715;40.642;-7.920;2023-06-10T08:56:05;96145.78;;;29.64;46.82
60874;BME280;46715;40.642;-7.920;2023-06-10T08:58:07;96135.66;;;29.83;44.66
60874;BME280;46715;40.642;-7.920;2023-06-10T09:00:08;96139.06;;;27.84;50.05
60874;BME280;46715;40.642;-7.920;2023-06-10T09:02:09;96150.41;;;27.09;50.53
60874;BME280;46715;40.642;-7.920;2023-06-10T09:04:10;96153.22;;;27.67;49.39
60874;BME280;46715;40.642;-7.920;2023-06-10T09:06:12;96147.88;;;27.74;46.35
60874;BME280;46715;40.642;-7.920;2023-06-10T09:08:15;96156.63;;;26.50;48.76
60874;BME280;46715;40.642;-7.920;2023-06-10T09:10:20;96155.06;;;25.15;53.20
60874;BME280;46715;40.642;-7.920;2023-06-10T09:12:21;96154.41;;;24.91;57.06
60874;BME280;46715;40.642;-7.920;2023-06-10T09:14:25;96159.59;;;24.77;55.47
60874;BME280;46715;40.642;-7.920;2023-06-10T09:16:26;96159.91;;;24.72;56.62
60874;BME280;46715;40.642;-7.920;2023-06-10T09:18:28;96153.94;;;25.16;57.57
60874;BME280;46715;40.642;-7.920;2023-06-10T09:20:29;96159.69;;;26.52;51.36
60874;BME280;46715;40.642;-7.920;2023-06-10T09:22:30;96149.44;;;28.00;46.85
60874;BME280;46715;40.642;-7.920;2023-06-10T09:24:32;96144.28;;;28.89;42.99
60874;BME280;46715;40.642;-7.920;2023-06-10T09:26:33;96149.94;;;29.72;42.62
60874;BME280;46715;40.642;-7.920;2023-06-10T09:28:36;96143.66;;;28.23;44.11
60874;BME280;46715;40.642;-7.920;2023-06-10T09:30:37;96146.72;;;28.18;42.92
60874;BME280;46715;40.642;-7.920;2023-06-10T09:32:40;96149.75;;;27.52;44.53
60874;BME280;46715;40.642;-7.920;2023-06-10T09:34:41;96149.75;;;27.48;45.65
60874;BME280;46715;40.642;-7.920;2023-06-10T09:36:42;96139.38;;;28.66;42.35
60874;BME280;46715;40.642;-7.920;2023-06-10T09:38:44;96134.94;;;29.15;42.60
60874;BME280;46715;40.642;-7.920;2023-06-10T09:40:51;96140.97;;;28.27;43.69
60874;BME280;46715;40.642;-7.920;2023-06-10T09:43:00;96131.00;;;28.28;41.95
60874;BME280;46715;40.642;-7.920;2023-06-10T09:45:02;96139.63;;;29.67;41.54
60874;BME280;46715;40.642;-7.920;2023-06-10T09:47:03;96136.03;;;30.30;39.46
60874;BME280;46715;40.642;-7.920;2023-06-10T09:49:04;96134.81;;;29.40;39.66
60874;BME280;46715;40.642;-7.920;2023-06-10T09:51:09;96133.47;;;29.00;41.51
60874;BME280;46715;40.642;-7.920;2023-06-10T09:53:11;96132.16;;;27.98;42.96
60874;BME280;46715;40.642;-7.920;2023-06-10T09:55:11;96141.72;;;27.55;45.54
60874;BME280;46715;40.642;-7.920;2023-06-10T09:57:12;96129.44;;;28.37;43.36
60874;BME280;46715;40.642;-7.920;2023-06-10T09:59:14;96133.22;;;28.58;41.74
60874;BME280;46715;40.642;-7.920;2023-06-10T10:01:15;96125.16;;;28.72;41.37
60874;BME280;46715;40.642;-7.920;2023-06-10T10:03:22;96121.81;;;29.35;38.51
60874;BME280;46715;40.642;-7.920;2023-06-10T10:05:23;96133.69;;;29.34;41.13
60874;BME280;46715;40.642;-7.920;2023-06-10T10:07:23;96132.22;;;29.26;40.04
60874;BME280;46715;40.642;-7.920;2023-06-10T10:09:24;96128.19;;;29.56;40.48
60874;BME280;46715;40.642;-7.920;2023-06-10T10:11:26;96133.94;;;28.84;39.54
60874;BME280;46715;40.642;-7.920;2023-06-10T10:13:27;96137.38;;;28.84;39.55
60874;BME280;46715;40.642;-7.920;2023-06-10T10:15:31;96127.84;;;29.50;39.07
60874;BME280;46715;40.642;-7.920;2023-06-10T10:17:34;96126.91;;;29.75;39.12
60874;BME280;46715;40.642;-7.920;2023-06-10T10:19:43;96133.31;;;28.26;40.72
60874;BME280;46715;40.642;-7.920;2023-06-10T10:21:52;96131.34;;;28.44;40.97
60874;BME280;46715;40.642;-7.920;2023-06-10T10:24:17;96134.84;;;27.54;41.07
60874;BME280;46715;40.642;-7.920;2023-06-10T10:26:21;96138.69;;;27.71;41.92
60874;BME280;46715;40.642;-7.920;2023-06-10T10:28:24;96139.44;;;27.72;42.56
60874;BME280;46715;40.642;-7.920;2023-06-10T10:30:30;96138.97;;;28.71;41.45
60874;BME280;46715;40.642;-7.920;2023-06-10T10:32:43;96130.25;;;28.20;41.89
60874;BME280;46715;40.642;-7.920;2023-06-10T10:35:07;96134.72;;;30.04;39.26